UKON/NLV METAR and TAF weather

Enter ICAO airport designator
Station Type Date Time Source
UKON METAR 2019/02/17 07:00 UTC NOAA

UKON 170700Z 29004MPS 250V310 5000 BR NSC 03/02 Q1021 NOSIG


Station Type Date Time Source
UKON Decoded METAR 2019/02/17 07:00 UTC NOAA

Mykolaiv, Ukraine (UKON) 47-03-29N 031-55-15E
Feb 17, 2019 - 02:00 AM EST / 2019.02.17 0700 UTC
Wind: from the WNW (290 degrees) at 9 MPH (8 KT) (direction variable):0
Visibility: 3 mile(s):0
Weather: mist
Temperature: 37 F (3 C)
Dew Point: 35 F (2 C)
Relative Humidity: 93%
Pressure (altimeter): 30.15 in. Hg (1021 hPa)
ob: UKON 170700Z 29004MPS 250V310 5000 BR NSC 03/02 Q1021 NOSIG
cycle: 7

Station Type Date Time Source
UKON TAF 2018/11/06 15:06 UTC NOAA

TAF
AMD TAF
AMD UKON 061502Z 0615/0724 CNL


Example: see airport list